Time;durP1;ratioP1;P1;durP2;ratioP2;P2;SDS_P1;SDS_P2;PMS_P1;PMS_P2;Temp;Humidity;BMP_temperature;BMP_pressure;BME280_temperature;BME280_humidity;BME280_pressure;Samples;Min_cycle;Max_cycle;Signal;HPM_P1;HPM_P2
2021/09/01 00:00:52;;;;;;;;;;;;;;;15.70;79.86;99597.81;5053500;28;19931;-70
2021/09/01 00:03:23;;;;;;;;;;;;;;;15.63;79.65;99596.25;5053348;28;19924;-70
2021/09/01 00:06:05;;;;;;;;;;;;;;;15.71;80.36;99598.66;5055834;28;19951;-70
2021/09/01 00:08:34;;;;;;;;;;;;;;;15.72;80.39;99596.03;5056912;28;20290;-70
2021/09/01 00:11:04;;;;;;;;;;;;;;;15.78;80.67;99606.22;5057085;28;19948;-69
2021/09/01 00:13:33;;;;;;;;;;;;;;;15.84;80.61;99606.06;5056796;28;20264;-69
2021/09/01 00:16:01;;;;;;;;;;;;;;;15.87;80.48;99606.00;5056641;28;19931;-70
2021/09/01 00:18:30;;;;;;;;;;;;;;;15.93;80.69;99615.31;5056702;28;19948;-70
2021/09/01 00:20:59;;;;;;;;;;;;;;;15.96;80.64;99621.22;5056849;28;19925;-70
2021/09/01 00:23:28;;;;;;;;;;;;;;;15.97;80.54;99622.06;5056562;28;19932;-69
2021/09/01 00:25:56;;;;;;;;;;;;;;;15.98;80.50;99618.63;5056736;28;20016;-69
2021/09/01 00:28:26;;;;;;;;;;;;;;;16.00;80.61;99607.38;5056787;28;19924;-69
2021/09/01 00:31:00;;;;;;;;;;;;;;;16.03;80.58;99611.59;5056344;28;19925;-69
2021/09/01 00:33:29;;;;;;;;;;;;;;;16.02;80.60;99610.78;5056416;28;20015;-69
2021/09/01 00:35:58;;;;;;;;;;;;;;;16.02;80.53;99615.94;5056335;28;19924;-69
2021/09/01 00:38:26;;;;;;;;;;;;;;;16.05;80.41;99621.00;5056311;28;20356;-69
2021/09/01 00:40:56;;;;;;;;;;;;;;;16.03;80.38;99620.19;5056041;28;19925;-69
2021/09/01 00:43:26;;;;;;;;;;;;;;;16.06;80.55;99627.00;5056252;28;19999;-70
2021/09/01 00:45:54;;;;;;;;;;;;;;;16.08;80.51;99626.06;5056163;28;20333;-70
2021/09/01 00:48:24;;;;;;;;;;;;;;;16.12;80.27;99624.28;5056152;28;19925;-70
2021/09/01 00:50:53;;;;;;;;;;;;;;;16.14;80.12;99629.41;5056002;28;20433;-70
2021/09/01 00:53:22;;;;;;;;;;;;;;;16.13;79.95;99625.13;5056153;28;19924;-70
2021/09/01 00:55:51;;;;;;;;;;;;;;;16.13;80.06;99628.53;5055971;28;19933;-70
2021/09/01 00:58:20;;;;;;;;;;;;;;;16.13;80.01;99633.69;5055948;28;19925;-70
2021/09/01 01:01:06;;;;;;;;;;;;;;;16.13;80.08;99636.25;5056162;28;20027;-70
2021/09/01 01:03:35;;;;;;;;;;;;;;;16.09;79.86;99632.09;5056247;28;19924;-70
2021/09/01 01:06:03;;;;;;;;;;;;;;;16.02;80.26;99631.38;5055763;28;19925;-70
2021/09/01 01:08:32;;;;;;;;;;;;;;;16.02;80.62;99636.53;5056042;28;20011;-70
2021/09/01 01:11:01;;;;;;;;;;;;;;;15.99;80.71;99631.44;5055955;28;19963;-70
2021/09/01 01:13:30;;;;;;;;;;;;;;;15.95;80.83;99624.69;5055578;28;20396;-70
2021/09/01 01:16:00;;;;;;;;;;;;;;;15.91;81.10;99633.34;5055598;28;20027;-70
2021/09/01 01:18:29;;;;;;;;;;;;;;;15.78;81.29;99631.09;5055651;28;19968;-70
2021/09/01 01:20:58;;;;;;;;;;;;;;;15.72;81.60;99634.66;5055463;28;20015;-70
2021/09/01 01:23:26;;;;;;;;;;;;;;;15.67;81.33;99633.06;5055840;28;19935;-70
2021/09/01 01:25:56;;;;;;;;;;;;;;;15.69;81.54;99632.13;5055364;28;20458;-70
2021/09/01 01:28:25;;;;;;;;;;;;;;;15.70;81.37;99633.84;5055708;28;20301;-70
2021/09/01 01:30:53;;;;;;;;;;;;;;;15.69;81.28;99636.47;5055298;28;20437;-70
2021/09/01 01:33:22;;;;;;;;;;;;;;;15.72;81.55;99624.34;5055673;28;20401;-70
2021/09/01 01:35:52;;;;;;;;;;;;;;;15.66;81.61;99621.06;5055245;28;20019;-69
2021/09/01 01:38:21;;;;;;;;;;;;;;;15.61;81.30;99630.63;5055453;28;20019;-69
2021/09/01 01:40:49;;;;;;;;;;;;;;;15.63;81.95;99628.84;5054958;28;19952;-70
2021/09/01 01:43:20;;;;;;;;;;;;;;;15.49;81.79;99636.03;5055406;28;20263;-70
2021/09/01 01:45:49;;;;;;;;;;;;;;;15.48;82.00;99634.34;5055290;28;19925;-70
2021/09/01 01:48:18;;;;;;;;;;;;;;;15.51;81.91;99637.69;5054936;28;19924;-69
2021/09/01 01:50:47;;;;;;;;;;;;;;;15.56;81.83;99643.59;5054947;28;19929;-69
2021/09/01 01:53:16;;;;;;;;;;;;;;;15.66;81.29;99642.50;5054818;28;19932;-69
2021/09/01 01:55:44;;;;;;;;;;;;;;;15.73;81.24;99644.06;5054902;28;20024;-69
2021/09/01 01:58:13;;;;;;;;;;;;;;;15.80;80.68;99643.06;5054787;28;19931;-69
2021/09/01 02:00:43;;;;;;;;;;;;;;;15.85;80.66;99638.66;5054780;28;19925;-69
2021/09/01 02:03:11;;;;;;;;;;;;;;;15.89;80.13;99637.69;5054652;28;19967;-69
2021/09/01 02:05:41;;;;;;;;;;;;;;;15.91;79.67;99643.66;5054879;28;19925;-70
2021/09/01 02:08:09;;;;;;;;;;;;;;;15.95;79.72;99642.72;5054641;28;19979;-70
2021/09/01 02:10:38;;;;;;;;;;;;;;;15.94;79.48;99643.59;5054558;28;19951;-70
2021/09/01 02:13:07;;;;;;;;;;;;;;;15.90;79.34;99636.81;5054488;28;19928;-70
2021/09/01 02:15:36;;;;;;;;;;;;;;;15.92;79.29;99640.19;5054843;28;20023;-70
2021/09/01 02:18:06;;;;;;;;;;;;;;;15.91;79.33;99638.50;5054481;28;19979;-70
2021/09/01 02:20:35;;;;;;;;;;;;;;;15.90;79.32;99639.41;5054729;28;19925;-70
2021/09/01 02:23:04;;;;;;;;;;;;;;;15.90;79.24;99631.66;5036236;28;19931;-69
2021/09/01 02:25:32;;;;;;;;;;;;;;;15.85;79.31;99638.66;5054594;28;20290;-69
2021/09/01 02:28:01;;;;;;;;;;;;;;;15.82;79.50;99633.56;5053848;28;19968;-70
2021/09/01 02:30:31;;;;;;;;;;;;;;;15.79;79.13;99637.91;5054210;28;19925;-70
2021/09/01 02:32:59;;;;;;;;;;;;;;;15.75;79.55;99644.03;5054389;28;19925;-69
2021/09/01 02:35:29;;;;;;;;;;;;;;;15.73;79.56;99645.78;5054141;28;19925;-70
2021/09/01 02:37:58;;;;;;;;;;;;;;;15.72;79.55;99642.38;5055048;28;19931;-69
2021/09/01 02:40:27;;;;;;;;;;;;;;;15.72;79.10;99642.38;5053904;28;20011;-69
2021/09/01 02:42:55;;;;;;;;;;;;;;;15.71;79.54;99645.84;5054074;28;19987;-69
2021/09/01 02:45:24;;;;;;;;;;;;;;;15.69;79.43;99642.41;5054193;28;19951;-69
2021/09/01 02:47:53;;;;;;;;;;;;;;;15.68;79.43;99651.03;5054020;28;19932;-70
2021/09/01 02:50:22;;;;;;;;;;;;;;;15.64;79.12;99639.13;5053997;28;19978;-69
2021/09/01 02:52:52;;;;;;;;;;;;;;;15.62;78.95;99633.16;5053887;28;19943;-70
2021/09/01 02:55:20;;;;;;;;;;;;;;;15.60;78.96;99632.34;5054031;28;20393;-69
2021/09/01 02:57:49;;;;;;;;;;;;;;;15.56;79.22;99633.28;5053881;28;20023;-69
2021/09/01 03:00:17;;;;;;;;;;;;;;;15.54;79.42;99631.63;5053851;28;19932;-69
2021/09/01 03:02:46;;;;;;;;;;;;;;;15.57;79.35;99632.44;5053823;28;19929;-69
2021/09/01 03:05:15;;;;;;;;;;;;;;;15.57;79.08;99632.44;5053740;28;19924;-69
2021/09/01 03:07:44;;;;;;;;;;;;;;;15.58;78.97;99634.09;5053808;28;19978;-69
2021/09/01 03:10:14;;;;;;;;;;;;;;;15.58;78.93;99634.09;5036049;28;19925;-69
2021/09/01 03:12:43;;;;;;;;;;;;;;;15.61;79.07;99630.63;5053796;28;20382;-70
2021/09/01 03:15:12;;;;;;;;;;;;;;;15.59;78.71;99628.09;5053964;28;19964;-69
2021/09/01 03:17:40;;;;;;;;;;;;;;;15.59;78.82;99634.97;5053974;28;20396;-70
2021/09/01 03:20:09;;;;;;;;;;;;;;;15.59;78.51;99628.09;5053944;28;20027;-69
2021/09/01 03:22:38;;;;;;;;;;;;;;;15.58;78.28;99623.81;5036206;28;19974;-69
2021/09/01 03:25:07;;;;;;;;;;;;;;;15.58;78.50;99636.69;5053593;28;19979;-69
2021/09/01 03:27:37;;;;;;;;;;;;;;;15.59;78.42;99640.09;5053571;28;19925;-69
2021/09/01 03:30:06;;;;;;;;;;;;;;;15.59;78.41;99634.97;5053671;28;19954;-69
2021/09/01 03:32:35;;;;;;;;;;;;;;;15.60;77.85;99629.78;5053572;28;20016;-69
2021/09/01 03:35:04;;;;;;;;;;;;;;;15.62;77.78;99630.56;5053945;28;20290;-69
2021/09/01 03:37:33;;;;;;;;;;;;;;;15.63;77.63;99642.56;5053536;28;19925;-69
2021/09/01 03:40:02;;;;;;;;;;;;;;;15.66;77.32;99639.94;5054449;28;20276;-70
2021/09/01 03:42:30;;;;;;;;;;;;;;;15.65;77.26;99650.25;5057676;28;19956;-70
2021/09/01 03:45:00;;;;;;;;;;;;;;;15.63;77.14;99658.00;5057223;28;19924;-70
2021/09/01 03:47:30;;;;;;;;;;;;;;;15.62;77.18;99651.16;5057270;28;19924;-70
2021/09/01 03:49:58;;;;;;;;;;;;;;;15.59;77.09;99646.09;5057243;28;19929;-70
2021/09/01 03:52:27;;;;;;;;;;;;;;;15.60;77.15;99650.34;5057210;28;19978;-69
2021/09/01 03:54:55;;;;;;;;;;;;;;;15.60;77.21;99652.91;5057129;28;19925;-70
2021/09/01 03:57:24;;;;;;;;;;;;;;;15.59;77.25;99651.25;5057101;28;20374;-70
2021/09/01 03:59:53;;;;;;;;;;;;;;;15.57;77.11;99652.16;5057066;28;20011;-70
2021/09/01 04:02:23;;;;;;;;;;;;;;;15.57;77.07;99658.16;5057009;28;20420;-70
2021/09/01 04:04:52;;;;;;;;;;;;;;;15.56;76.83;99656.44;5056958;28;19924;-69
2021/09/01 04:07:20;;;;;;;;;;;;;;;15.57;77.02;99663.31;5056820;28;19955;-70
2021/09/01 04:09:49;;;;;;;;;;;;;;;15.58;77.20;99664.97;5056880;28;19951;-70
2021/09/01 04:12:18;;;;;;;;;;;;;;;15.60;76.81;99678.66;5056873;28;19963;-69
2021/09/01 04:14:48;;;;;;;;;;;;;;;15.62;76.74;99676.06;5056747;28;19931;-69
2021/09/01 04:17:16;;;;;;;;;;;;;;;15.62;77.16;99689.75;5057002;28;19925;-70
2021/09/01 04:19:46;;;;;;;;;;;;;;;15.62;76.81;99688.94;5056670;28;20337;-70
2021/09/01 04:22:15;;;;;;;;;;;;;;;15.59;76.75;99687.28;5056670;28;19925;-70
2021/09/01 04:24:44;;;;;;;;;;;;;;;15.58;76.96;99695.00;5056599;28;19925;-70
2021/09/01 04:27:12;;;;;;;;;;;;;;;15.58;77.13;99695.84;5056453;28;19975;-70
2021/09/01 04:29:41;;;;;;;;;;;;;;;15.53;77.23;99696.81;5057148;28;19971;-70
2021/09/01 04:32:09;;;;;;;;;;;;;;;15.52;76.88;99710.56;5056447;28;20333;-69
2021/09/01 04:34:38;;;;;;;;;;;;;;;15.53;77.26;99718.25;5056456;28;19967;-69
2021/09/01 04:37:08;;;;;;;;;;;;;;;15.54;77.00;99714.81;5056502;28;19947;-70
2021/09/01 04:39:37;;;;;;;;;;;;;;;15.55;77.32;99713.09;5056104;28;19970;-70
2021/09/01 04:42:05;;;;;;;;;;;;;;;15.56;77.16;99718.19;5056263;28;19925;-69
2021/09/01 04:44:34;;;;;;;;;;;;;;;15.55;77.14;99726.78;5056245;28;19925;-70
2021/09/01 04:47:03;;;;;;;;;;;;;;;15.59;77.33;99733.56;5055950;28;19924;-70
2021/09/01 04:49:33;;;;;;;;;;;;;;;15.61;77.21;99726.66;5056191;28;20378;-70
2021/09/01 04:52:01;;;;;;;;;;;;;;;15.66;77.23;99724.84;5055820;28;20039;-70
2021/09/01 04:54:32;;;;;;;;;;;;;;;15.69;76.64;99729.09;5056043;28;19933;-69
2021/09/01 04:57:00;;;;;;;;;;;;;;;15.70;76.80;99730.78;5055971;28;19975;-70
2021/09/01 04:59:29;;;;;;;;;;;;;;;15.70;76.45;99735.91;5055957;28;19932;-70
2021/09/01 05:01:58;;;;;;;;;;;;;;;15.70;76.16;99731.63;5055890;28;19933;-70
2021/09/01 05:04:26;;;;;;;;;;;;;;;15.71;76.18;99733.31;5055863;28;19924;-70
2021/09/01 05:06:55;;;;;;;;;;;;;;;15.71;76.27;99735.91;5055676;28;19961;-70
2021/09/01 05:09:24;;;;;;;;;;;;;;;15.70;76.01;99736.78;5056429;28;20358;-70
2021/09/01 05:11:54;;;;;;;;;;;;;;;15.70;76.25;99731.63;5055997;28;19925;-70
2021/09/01 05:14:23;;;;;;;;;;;;;;;15.75;75.95;99724.66;5055735;28;20374;-70
2021/09/01 05:16:51;;;;;;;;;;;;;;;15.79;75.72;99730.56;5055611;28;20011;-70
2021/09/01 05:19:20;;;;;;;;;;;;;;;15.81;75.53;99736.56;5055457;28;19974;-70
2021/09/01 05:21:51;;;;;;;;;;;;;;;15.82;75.41;99730.50;5055524;28;20380;-70
2021/09/01 05:24:25;;;;;;;;;;;;;;;15.84;75.69;99728.75;5055551;28;19929;-70
2021/09/01 05:27:00;;;;;;;;;;;;;;;15.85;74.99;99731.31;5055405;28;20011;-70
2021/09/01 05:29:29;;;;;;;;;;;;;;;15.84;74.66;99729.59;5055394;28;19932;-70
2021/09/01 05:31:58;;;;;;;;;;;;;;;15.88;74.39;99735.56;5055348;28;19924;-70
2021/09/01 05:34:28;;;;;;;;;;;;;;;15.94;74.30;99738.84;5055391;28;19963;-71
2021/09/01 05:36:57;;;;;;;;;;;;;;;15.96;73.83;99739.63;5055218;28;19925;-70
2021/09/01 05:39:26;;;;;;;;;;;;;;;16.00;73.52;99741.25;5037423;28;20283;-71
2021/09/01 05:41:56;;;;;;;;;;;;;;;16.05;73.61;99754.88;5055720;28;19925;-70
2021/09/01 05:44:26;;;;;;;;;;;;;;;16.09;73.29;99756.53;5054838;28;20302;-71
2021/09/01 05:46:55;;;;;;;;;;;;;;;16.13;73.17;99746.13;5055000;28;19925;-71
2021/09/01 05:49:23;;;;;;;;;;;;;;;16.16;72.87;99753.81;5054853;28;20435;-71
2021/09/01 05:51:52;;;;;;;;;;;;;;;16.16;72.51;99751.22;5054937;28;19964;-71
2021/09/01 05:54:21;;;;;;;;;;;;;;;16.20;72.80;99747.69;5054808;28;20374;-71
2021/09/01 05:56:50;;;;;;;;;;;;;;;16.28;71.93;99746.66;5054717;28;20357;-71
2021/09/01 05:59:22;;;;;;;;;;;;;;;16.37;71.20;99743.00;5054835;28;19925;-71
2021/09/01 06:01:53;;;;;;;;;;;;;;;16.51;70.63;99746.09;5054685;28;20027;-70
2021/09/01 06:04:24;;;;;;;;;;;;;;;16.57;70.20;99754.59;5054149;28;19925;-71
2021/09/01 06:06:53;;;;;;;;;;;;;;;16.63;70.25;99751.00;5054688;28;19929;-71
2021/09/01 06:09:22;;;;;;;;;;;;;;;16.69;70.26;99753.44;5054576;28;20390;-71
2021/09/01 06:11:54;;;;;;;;;;;;;;;16.94;69.53;99749.38;5054499;28;19929;-71
2021/09/01 06:14:24;;;;;;;;;;;;;;;17.30;68.40;99745.81;5054398;28;19971;-71
2021/09/01 06:16:53;;;;;;;;;;;;;;;17.61;67.64;99753.59;5054550;28;19925;-70
2021/09/01 06:19:22;;;;;;;;;;;;;;;17.81;66.82;99755.63;5054583;28;19951;-69
2021/09/01 06:21:50;;;;;;;;;;;;;;;18.09;66.08;99746.19;5054679;28;19929;-70
2021/09/01 06:24:19;;;;;;;;;;;;;;;18.37;65.59;99752.19;5054352;28;19932;-70
2021/09/01 06:26:48;;;;;;;;;;;;;;;18.55;64.98;99756.81;5054261;28;19931;-70
2021/09/01 06:29:16;;;;;;;;;;;;;;;18.70;64.50;99758.91;5054470;28;20431;-70
2021/09/01 06:31:46;;;;;;;;;;;;;;;18.80;64.14;99766.38;5054161;28;19931;-70
2021/09/01 06:34:15;;;;;;;;;;;;;;;18.91;63.56;99764.28;5054166;28;19956;-70
2021/09/01 06:36:44;;;;;;;;;;;;;;;19.02;63.32;99777.69;5053612;28;20382;-71
2021/09/01 06:39:13;;;;;;;;;;;;;;;19.09;63.15;99780.03;5043742;28;19960;-71
2021/09/01 06:41:42;;;;;;;;;;;;;;;19.19;62.62;99786.59;5036626;28;19952;-71
2021/09/01 06:44:11;;;;;;;;;;;;;;;19.25;62.50;99782.94;5034143;28;20394;-71
2021/09/01 06:46:40;;;;;;;;;;;;;;;19.15;62.49;99789.31;5034131;28;19952;-71
2021/09/01 06:49:11;;;;;;;;;;;;;;;19.22;62.20;99785.63;5033922;28;20015;-71
2021/09/01 06:51:39;;;;;;;;;;;;;;;19.16;62.09;99785.84;5034369;28;19925;-71
2021/09/01 06:54:08;;;;;;;;;;;;;;;19.15;62.50;99791.91;5033945;28;19968;-71
2021/09/01 06:56:36;;;;;;;;;;;;;;;19.11;62.37;99792.91;5033958;28;19932;-69
2021/09/01 06:59:05;;;;;;;;;;;;;;;18.76;61.89;99795.81;5033944;28;19925;-70
2021/09/01 07:01:33;;;;;;;;;;;;;;;18.53;62.13;99805.13;5033986;28;19956;-70
2021/09/01 07:04:02;;;;;;;;;;;;;;;18.60;62.22;99803.19;5033904;28;20333;-70
2021/09/01 07:06:32;;;;;;;;;;;;;;;18.97;61.42;99802.88;5033760;28;19976;-70
2021/09/01 07:09:01;;;;;;;;;;;;;;;19.19;60.65;99811.63;5034051;28;19952;-70
2021/09/01 07:11:29;;;;;;;;;;;;;;;19.48;60.64;99818.44;5033856;28;19960;-69
2021/09/01 07:13:58;;;;;;;;;;;;;;;19.57;60.08;99813.78;5034727;28;19933;-71
2021/09/01 07:16:27;;;;;;;;;;;;;;;19.73;59.51;99825.28;5037939;28;19932;-70
2021/09/01 07:18:56;;;;;;;;;;;;;;;19.62;59.60;99832.59;5037879;28;19925;-70
2021/09/01 07:21:25;;;;;;;;;;;;;;;19.34;59.97;99837.81;5037876;28;19925;-70
2021/09/01 07:23:56;;;;;;;;;;;;;;;19.01;59.73;99832.91;5037864;28;19932;-69
2021/09/01 07:26:24;;;;;;;;;;;;;;;18.79;60.01;99834.53;5038121;28;19935;-70
2021/09/01 07:28:53;;;;;;;;;;;;;;;18.63;60.77;99850.50;5037528;28;19925;-70
2021/09/01 07:31:22;;;;;;;;;;;;;;;18.30;61.21;99843.72;5037537;28;19976;-70
2021/09/01 07:33:51;;;;;;;;;;;;;;;18.09;61.51;99854.69;5037930;28;20009;-68
2021/09/01 07:36:21;;;;;;;;;;;;;;;17.93;61.79;99861.16;5019930;28;20437;-70
2021/09/01 07:38:49;;;;;;;;;;;;;;;17.78;61.92;99864.19;5037368;28;20015;-70
2021/09/01 07:41:19;;;;;;;;;;;;;;;17.63;62.84;99869.75;5037456;28;19925;-69
2021/09/01 07:43:48;;;;;;;;;;;;;;;17.58;63.21;99876.75;5037699;28;19932;-68
2021/09/01 07:46:17;;;;;;;;;;;;;;;17.46;63.63;99877.88;5037349;28;19979;-69
2021/09/01 07:48:46;;;;;;;;;;;;;;;17.42;63.78;99886.56;5037010;28;19935;-71
2021/09/01 07:51:14;;;;;;;;;;;;;;;17.44;64.13;99880.47;5037484;28;19971;-69
2021/09/01 07:53:45;;;;;;;;;;;;;;;17.43;64.10;99889.13;5037131;28;20023;-70
2021/09/01 07:56:13;;;;;;;;;;;;;;;17.34;63.91;99889.38;5037465;28;19932;-71
2021/09/01 07:58:43;;;;;;;;;;;;;;;17.33;63.85;99897.97;5037009;28;19971;-71
2021/09/01 08:01:12;;;;;;;;;;;;;;;17.44;64.03;99897.72;5037126;28;19925;-71
2021/09/01 12:25:30;;;;;;;19.05;5.90;;;;;;;23.65;54.81;99967.91;5038033;27;20420;-51
2021/09/01 18:52:18;;;;;;;;;;;;;;;18.90;59.25;100166.97;5111489;27;19916;-72
2021/09/01 18:54:48;;;;;;;;;;;;;;;17.61;61.28;100176.13;5110887;28;19923;-72
2021/09/01 18:57:17;;;;;;;;;;;;;;;17.12;62.60;100176.22;5111323;28;19933;-72
2021/09/01 18:59:47;;;;;;;;;;;;;;;16.91;63.74;100180.06;5111352;28;19924;-72
2021/09/01 19:02:19;;;;;;;;;;;;;;;16.88;63.95;100182.69;5111723;28;19947;-72
2021/09/01 19:04:50;;;;;;;;;;;;;;;16.85;64.09;100182.75;5109254;28;19970;-72
2021/09/01 19:07:29;;;;;;;;;;;;;;;16.87;64.17;100180.16;5108003;28;19924;-71
2021/09/01 19:10:00;;;;;;;;;;;;;;;16.84;64.14;100181.06;5111575;28;19932;-71
2021/09/01 19:12:30;;;;;;;;;;;;;;;16.85;64.11;100187.06;5098471;28;19925;-72
2021/09/01 19:15:00;;;;;;;;;;;;;;;16.86;64.26;100194.78;5098193;28;19924;-74
2021/09/01 19:17:30;;;;;;;;;;;;;;;16.77;64.38;100190.63;5091660;28;19924;-71
2021/09/01 19:19:59;;;;;;;;;;;;;;;16.64;65.25;100188.28;5094399;28;20007;-71
2021/09/01 19:22:31;;;;;;;;;;;;;;;16.57;65.55;100194.44;5104839;28;19928;-72
2021/09/01 19:25:00;;;;;;;;;;;;;;;16.59;65.61;100200.41;5089342;28;19974;-72
2021/09/01 19:27:31;;;;;;;;;;;;;;;16.60;66.14;100202.13;5090902;28;20342;-72
2021/09/01 19:30:01;;;;;;;;;;;;;;;16.59;65.84;100200.41;5090978;28;20438;-72
2021/09/01 19:32:30;;;;;;;;;;;;;;;16.57;65.47;100202.16;5090849;28;19960;-71
2021/09/01 19:34:59;;;;;;;;;;;;;;;16.59;65.54;100205.56;5090763;28;19987;-72
2021/09/01 19:37:31;;;;;;;;;;;;;;;16.51;65.66;100202.22;5090703;28;19928;-72
2021/09/01 19:40:01;;;;;;;;;;;;;;;16.53;65.99;100200.53;5090769;28;19924;-72
2021/09/01 19:42:29;;;;;;;;;;;;;;;16.55;65.38;100201.34;5090687;28;20003;-72
2021/09/01 19:44:58;;;;;;;;;;;;;;;16.51;65.31;100203.09;5090507;28;20373;-72
2021/09/01 19:47:28;;;;;;;;;;;;;;;16.41;65.47;100198.94;5090621;28;20019;-72
2021/09/01 19:49:57;;;;;;;;;;;;;;;16.32;66.28;100213.69;5091499;28;19924;-72
2021/09/01 19:52:26;;;;;;;;;;;;;;;16.32;66.20;100205.97;5110771;28;19959;-72
2021/09/01 19:55:01;;;;;;;;;;;;;;;16.30;66.42;100210.28;5109381;28;20076;-72
2021/09/01 19:57:32;;;;;;;;;;;;;;;16.31;66.31;100217.16;5110805;28;20464;-72
2021/09/01 20:00:02;;;;;;;;;;;;;;;16.17;66.77;100221.66;5110908;28;19924;-71
2021/09/01 20:02:40;;;;;;;;;;;;;;;16.10;67.07;100232.03;5102493;28;19977;-71
2021/09/01 20:05:09;;;;;;;;;;;;;;;16.09;67.69;100235.50;5096661;28;20385;-71
2021/09/01 20:07:39;;;;;;;;;;;;;;;16.03;67.45;100239.88;5096809;28;19981;-71
2021/09/01 20:10:10;;;;;;;;;;;;;;;15.95;67.69;100246.88;5096867;28;20346;-71
2021/09/01 20:12:38;;;;;;;;;;;;;;;15.87;67.72;100253.81;5096830;28;19928;-71
2021/09/01 20:15:07;;;;;;;;;;;;;;;15.78;68.40;100249.66;5096746;28;19924;-71
2021/09/01 20:17:36;;;;;;;;;;;;;;;15.69;68.45;100249.75;5096693;28;19924;-71
2021/09/01 20:20:06;;;;;;;;;;;;;;;15.60;68.81;100249.00;5096779;28;19956;-72
2021/09/01 20:22:35;;;;;;;;;;;;;;;15.52;69.13;100251.72;5096713;28;19924;-71
2021/09/01 20:25:03;;;;;;;;;;;;;;;15.45;69.09;100250.06;5096838;28;20015;-71
2021/09/01 20:27:35;;;;;;;;;;;;;;;15.37;69.35;100247.53;5096634;28;19924;-71
2021/09/01 20:30:04;;;;;;;;;;;;;;;15.35;69.46;100248.44;5096562;28;19924;-71
2021/09/01 20:32:33;;;;;;;;;;;;;;;15.32;69.54;100249.31;5096418;28;19964;-71
2021/09/01 20:35:02;;;;;;;;;;;;;;;15.30;70.11;100255.34;5096325;28;19924;-71
2021/09/01 20:37:31;;;;;;;;;;;;;;;15.27;69.85;100260.50;5096273;28;19930;-71
2021/09/01 20:40:00;;;;;;;;;;;;;;;15.23;70.41;100258.84;5096272;28;19969;-71
2021/09/01 20:42:31;;;;;;;;;;;;;;;15.21;70.27;100260.59;5096645;28;20031;-71
2021/09/01 20:45:03;;;;;;;;;;;;;;;15.20;70.42;100264.00;5096201;28;19967;-71
2021/09/01 20:47:33;;;;;;;;;;;;;;;15.15;70.33;100265.78;5096254;28;19924;-71
2021/09/01 20:50:02;;;;;;;;;;;;;;;15.04;71.07;100267.63;5096014;28;19924;-71
2021/09/01 20:52:31;;;;;;;;;;;;;;;14.86;71.57;100263.47;5096107;28;19924;-71
2021/09/01 20:55:01;;;;;;;;;;;;;;;14.76;71.93;100267.84;5095881;28;19924;-71
2021/09/01 20:57:31;;;;;;;;;;;;;;;14.76;71.99;100267.84;5096352;28;19928;-71
2021/09/01 21:00:05;;;;;;;;;;;;;;;14.61;72.61;100267.97;5096797;28;20082;-71
2021/09/01 21:02:34;;;;;;;;;;;;;;;14.56;72.73;100279.16;5095952;28;19924;-71
2021/09/01 21:05:04;;;;;;;;;;;;;;;14.30;72.76;100276.75;5096395;28;19978;-71
2021/09/01 21:07:34;;;;;;;;;;;;;;;14.19;73.71;100273.38;5096224;28;19924;-71
2021/09/01 21:10:04;;;;;;;;;;;;;;;14.23;73.84;100275.03;5095741;28;19924;-71
2021/09/01 21:12:32;;;;;;;;;;;;;;;14.25;74.05;100277.63;5095625;28;19931;-71
2021/09/01 21:15:03;;;;;;;;;;;;;;;14.18;74.41;100271.66;5094727;28;19924;-71
2021/09/01 21:17:35;;;;;;;;;;;;;;;14.19;74.26;100278.50;5095576;28;19946;-71
2021/09/01 21:20:05;;;;;;;;;;;;;;;14.15;74.72;100271.69;5095630;28;19924;-71
2021/09/01 21:22:37;;;;;;;;;;;;;;;14.11;74.99;100275.09;5095558;28;19924;-71
2021/09/01 21:25:07;;;;;;;;;;;;;;;14.00;75.02;100287.16;5095503;28;20003;-71
2021/09/01 21:27:36;;;;;;;;;;;;;;;13.81;75.08;100275.28;5095324;28;20011;-71
2021/09/01 21:30:07;;;;;;;;;;;;;;;13.72;75.37;100278.75;5095372;28;20361;-71
2021/09/01 21:32:37;;;;;;;;;;;;;;;13.67;75.64;100279.59;5095316;28;20019;-71
2021/09/01 21:35:06;;;;;;;;;;;;;;;13.66;76.08;100283.88;5095276;28;19928;-71
2021/09/01 21:37:35;;;;;;;;;;;;;;;13.66;76.09;100283.88;5095102;28;20007;-71
2021/09/01 21:40:05;;;;;;;;;;;;;;;13.65;76.50;100283.91;5095425;28;19948;-71
2021/09/01 21:42:34;;;;;;;;;;;;;;;13.68;76.48;100278.72;5095169;28;20282;-71
2021/09/01 21:45:03;;;;;;;;;;;;;;;13.59;76.33;100269.38;5095069;28;20014;-71
2021/09/01 21:47:35;;;;;;;;;;;;;;;13.57;76.44;100272.78;5094925;28;19924;-71
2021/09/01 21:50:04;;;;;;;;;;;;;;;13.60;76.55;100267.66;5094841;28;19924;-72
2021/09/01 21:52:33;;;;;;;;;;;;;;;13.52;76.35;100261.69;5095199;28;20369;-71
2021/09/01 21:55:02;;;;;;;;;;;;;;;13.46;76.86;100272.00;5094889;28;19946;-71
2021/09/01 21:57:32;;;;;;;;;;;;;;;13.40;76.71;100273.72;5094862;28;20332;-72
2021/09/01 22:00:01;;;;;;;;;;;;;;;13.30;77.35;100277.16;5094827;28;19970;-72
2021/09/01 22:02:31;;;;;;;;;;;;;;;13.31;77.48;100272.88;5094816;28;19978;-71
2021/09/01 22:05:02;;;;;;;;;;;;;;;13.32;77.54;100272.00;5094686;28;19935;-71
2021/09/01 22:07:32;;;;;;;;;;;;;;;13.37;77.69;100273.72;5094705;28;19924;-71
2021/09/01 22:10:01;;;;;;;;;;;;;;;13.29;77.68;100272.88;5094655;28;19924;-71
2021/09/01 22:12:30;;;;;;;;;;;;;;;13.27;77.99;100271.16;5094869;28;20292;-71
2021/09/01 22:14:59;;;;;;;;;;;;;;;13.28;77.96;100273.75;5094552;28;19924;-71
2021/09/01 22:17:28;;;;;;;;;;;;;;;13.31;78.15;100283.13;5094446;28;19931;-71
2021/09/01 22:19:56;;;;;;;;;;;;;;;13.35;78.10;100279.69;5094479;28;19924;-71
2021/09/01 22:22:28;;;;;;;;;;;;;;;13.41;77.84;100285.66;5094404;28;19924;-71
2021/09/01 22:24:57;;;;;;;;;;;;;;;13.40;77.44;100283.97;5094260;28;19932;-71
2021/09/01 22:27:27;;;;;;;;;;;;;;;13.43;77.23;100283.97;5094823;28;19964;-71
2021/09/01 22:29:55;;;;;;;;;;;;;;;13.40;77.24;100289.09;5094342;28;19978;-71
2021/09/01 22:32:24;;;;;;;;;;;;;;;13.38;76.65;100285.69;5094241;28;19931;-71
2021/09/01 22:34:53;;;;;;;;;;;;;;;13.25;76.68;100294.25;5094214;28;20366;-71
2021/09/01 22:37:21;;;;;;;;;;;;;;;13.13;76.49;100289.13;5094182;28;19973;-71
2021/09/01 22:39:52;;;;;;;;;;;;;;;13.13;77.03;100286.56;5094194;28;20005;-71
2021/09/01 22:42:20;;;;;;;;;;;;;;;13.03;77.08;100279.72;5094256;28;20010;-71
2021/09/01 22:44:49;;;;;;;;;;;;;;;13.00;76.93;100287.44;5094401;28;19924;-71
2021/09/01 22:47:18;;;;;;;;;;;;;;;12.92;77.13;100283.13;5094111;28;19924;-71
2021/09/01 22:49:47;;;;;;;;;;;;;;;12.86;77.64;100288.28;5094020;28;20023;-71
2021/09/01 22:52:15;;;;;;;;;;;;;;;12.88;77.87;100286.56;5093828;28;20022;-71
2021/09/01 22:54:44;;;;;;;;;;;;;;;12.82;77.72;100281.44;5094051;28;20007;-71
2021/09/01 22:57:14;;;;;;;;;;;;;;;12.83;78.18;100273.75;5094028;28;20007;-71
2021/09/01 22:59:43;;;;;;;;;;;;;;;12.86;78.13;100276.31;5094436;28;19959;-72
2021/09/01 23:02:14;;;;;;;;;;;;;;;12.90;78.00;100277.16;5094017;28;19924;-71
2021/09/01 23:04:43;;;;;;;;;;;;;;;12.95;78.21;100283.16;5093970;28;19967;-71
2021/09/01 23:07:36;;;;;;;;;;;;;;;13.02;78.17;100280.59;5094217;28;20000;-71
2021/09/01 23:10:06;;;;;;;;;;;;;;;13.12;78.01;100286.59;5094127;28;20366;-71
2021/09/01 23:12:38;;;;;;;;;;;;;;;13.06;77.48;100289.13;5094098;28;20422;-71
2021/09/01 23:15:10;;;;;;;;;;;;;;;12.89;77.59;100284.00;5058865;28;19934;-71
2021/09/01 23:17:42;;;;;;;;;;;;;;;12.89;77.84;100273.75;5093855;28;19924;-72
2021/09/01 23:20:17;;;;;;;;;;;;;;;12.80;77.48;100284.00;5093781;28;19942;-71
2021/09/01 23:22:49;;;;;;;;;;;;;;;12.81;77.51;100280.59;5093785;28;19924;-71
2021/09/01 23:25:18;;;;;;;;;;;;;;;12.66;77.38;100275.47;5075639;28;20286;-71
2021/09/01 23:27:49;;;;;;;;;;;;;;;12.64;77.50;100275.44;5093691;28;19928;-71
2021/09/01 23:30:22;;;;;;;;;;;;;;;12.50;77.65;100263.53;5093700;28;19931;-71
2021/09/01 23:32:54;;;;;;;;;;;;;;;12.40;77.93;100272.03;5093990;28;19924;-71
2021/09/01 23:35:31;;;;;;;;;;;;;;;12.52;78.31;100277.16;5093684;28;20369;-71
2021/09/01 23:38:03;;;;;;;;;;;;;;;12.50;78.28;100278.88;5095653;28;19931;-72
2021/09/01 23:40:35;;;;;;;;;;;;;;;12.42;78.22;100275.44;5097452;28;19928;-71